createdAt,value
2022-09-02T00:00:44.588Z,79.31
2022-09-02T00:03:12.035Z,78.79
2022-09-02T00:05:38.690Z,78.55
2022-09-02T00:08:05.985Z,79.90
2022-09-02T00:10:36.055Z,79.56
2022-09-02T00:13:02.549Z,79.38
2022-09-02T00:15:29.141Z,79.29
2022-09-02T00:17:56.014Z,79.33
2022-09-02T00:20:25.755Z,79.12
2022-09-02T00:22:52.296Z,79.10
2022-09-02T00:25:18.908Z,78.50
2022-09-02T00:27:45.579Z,78.24
2022-09-02T00:30:13.408Z,78.81
2022-09-02T00:32:40.122Z,79.13
2022-09-02T00:35:07.401Z,77.98
2022-09-02T00:37:34.232Z,77.24
2022-09-02T00:40:01.428Z,77.58
2022-09-02T00:42:28.265Z,78.19
2022-09-02T00:44:54.859Z,78.67
2022-09-02T00:47:22.157Z,78.20
2022-09-02T00:49:51.788Z,78.09
2022-09-02T00:52:31.102Z,79.21
2022-09-02T00:55:10.290Z,79.43
2022-09-02T00:57:46.641Z,79.76
2022-09-02T01:00:22.534Z,80.40
2022-09-02T01:02:51.856Z,80.30
2022-09-02T01:05:20.437Z,80.43
2022-09-02T01:07:47.512Z,79.99
2022-09-02T01:10:17.937Z,80.38
2022-09-02T01:12:44.942Z,80.10
2022-09-02T01:15:12.860Z,79.95
2022-09-02T01:17:43.430Z,80.21
2022-09-02T01:20:13.931Z,80.65
2022-09-02T01:22:42.113Z,81.21
2022-09-02T01:25:14.915Z,80.37
2022-09-02T01:27:41.781Z,80.41
2022-09-02T01:30:11.986Z,80.00
2022-09-02T01:32:38.565Z,79.93
2022-09-02T01:35:06.450Z,80.24
2022-09-02T01:37:33.481Z,80.19
2022-09-02T01:40:00.905Z,79.85
2022-09-02T01:42:27.661Z,80.35
2022-09-02T01:44:54.364Z,81.24
2022-09-02T01:47:24.627Z,81.06
2022-09-02T01:49:51.561Z,81.07
2022-09-02T01:52:19.900Z,81.34
2022-09-02T01:54:46.618Z,81.87
2022-09-02T01:57:13.177Z,81.05
2022-09-02T01:59:39.751Z,81.18
2022-09-02T02:02:07.235Z,81.63
2022-09-02T02:04:34.054Z,81.71
2022-09-02T02:07:00.614Z,82.08
2022-09-02T02:09:28.557Z,81.41
2022-09-02T02:11:55.120Z,82.04
2022-09-02T02:14:22.266Z,82.04
2022-09-02T02:16:49.810Z,81.70
2022-09-02T02:19:16.401Z,81.76
2022-09-02T02:21:43.195Z,81.55
2022-09-02T02:24:09.960Z,81.84
2022-09-02T02:26:36.593Z,82.05
2022-09-02T02:29:04.021Z,81.10
2022-09-02T02:31:30.739Z,81.23
2022-09-02T02:33:58.566Z,80.71
2022-09-02T02:36:25.384Z,81.06
2022-09-02T02:38:52.042Z,81.00
2022-09-02T02:41:18.663Z,81.15
2022-09-02T02:43:45.243Z,81.00
2022-09-02T02:46:12.243Z,81.59
2022-09-02T02:48:39.301Z,82.02
2022-09-02T02:51:06.226Z,82.66
2022-09-02T02:53:34.710Z,83.49
2022-09-02T02:56:01.552Z,84.06
2022-09-02T02:58:28.296Z,84.39
2022-09-02T03:00:55.342Z,84.60
2022-09-02T03:03:22.653Z,84.74
2022-09-02T03:05:50.471Z,85.30
2022-09-02T03:08:21.167Z,86.20
2022-09-02T03:10:51.656Z,85.99
2022-09-02T03:13:18.213Z,85.42
2022-09-02T03:15:44.808Z,85.38
2022-09-02T03:18:11.617Z,85.63
2022-09-02T03:20:40.154Z,86.28
2022-09-02T03:23:06.780Z,86.77
2022-09-02T03:25:35.879Z,86.97
2022-09-02T03:28:03.493Z,87.24
2022-09-02T03:30:31.777Z,87.35
2022-09-02T03:33:03.874Z,87.38
2022-09-02T03:35:31.863Z,88.13
2022-09-02T03:37:59.796Z,87.96
2022-09-02T03:40:28.139Z,88.32
2022-09-02T03:42:59.742Z,88.98
2022-09-02T03:45:27.109Z,89.51
2022-09-02T03:47:57.344Z,88.82
2022-09-02T03:50:27.363Z,89.25
2022-09-02T03:52:55.043Z,89.50
2022-09-02T03:55:22.324Z,89.50
2022-09-02T03:57:48.941Z,89.95
2022-09-02T04:00:17.147Z,90.14
2022-09-02T04:02:44.362Z,90.15
2022-09-02T04:05:16.820Z,89.77
2022-09-02T04:07:44.461Z,89.33
2022-09-02T04:10:14.232Z,88.63
2022-09-02T04:12:43.868Z,88.13
2022-09-02T04:15:12.261Z,87.38
2022-09-02T04:17:40.480Z,86.75
2022-09-02T04:20:09.535Z,85.93
2022-09-02T04:22:36.883Z,86.58
2022-09-02T04:25:05.235Z,86.06
2022-09-02T04:27:31.965Z,85.51
2022-09-02T04:29:59.512Z,85.82
2022-09-02T04:32:26.930Z,85.43
2022-09-02T04:34:53.684Z,85.17
2022-09-02T04:37:20.465Z,85.29
2022-09-02T04:39:47.068Z,84.61
2022-09-02T04:42:13.594Z,84.05
2022-09-02T04:44:40.240Z,83.62
2022-09-02T04:47:07.141Z,83.62
2022-09-02T04:49:34.715Z,83.30
2022-09-02T04:52:01.311Z,83.44
2022-09-02T04:54:28.562Z,83.44
2022-09-02T04:56:55.477Z,82.75
2022-09-02T04:59:22.099Z,83.57
2022-09-02T05:01:50.540Z,82.53
2022-09-02T05:04:17.247Z,82.53
2022-09-02T05:06:44.667Z,83.08
2022-09-02T05:09:11.686Z,82.55
2022-09-02T05:11:38.818Z,82.05
2022-09-02T05:14:07.091Z,81.94
2022-09-02T05:16:40.199Z,81.80
2022-09-02T05:19:10.009Z,82.67
2022-09-02T05:21:41.822Z,82.52
2022-09-02T05:24:08.546Z,81.11
2022-09-02T05:26:36.019Z,80.65
2022-09-02T05:29:06.974Z,80.53
2022-09-02T05:31:34.168Z,80.90
2022-09-02T05:34:00.931Z,80.79
2022-09-02T05:36:27.796Z,79.85
2022-09-02T05:38:54.371Z,79.16
2022-09-02T05:41:23.579Z,78.04
2022-09-02T05:43:55.874Z,78.02
2022-09-02T05:46:25.506Z,78.06
2022-09-02T05:49:17.450Z,77.13
2022-09-02T05:51:55.128Z,76.39
2022-09-02T05:54:25.173Z,76.28
2022-09-02T05:56:54.285Z,75.73
2022-09-02T05:59:22.367Z,75.07
2022-09-02T06:01:49.473Z,75.20
2022-09-02T06:04:16.476Z,75.10
2022-09-02T06:06:43.268Z,73.79
2022-09-02T06:09:12.094Z,74.04
2022-09-02T06:11:40.392Z,73.60
2022-09-02T06:14:08.504Z,74.25
2022-09-02T06:16:36.268Z,71.85
2022-09-02T06:19:04.016Z,71.75
2022-09-02T06:21:32.115Z,70.88
2022-09-02T06:24:00.262Z,70.69
2022-09-02T06:26:27.168Z,70.41
2022-09-02T06:28:53.785Z,70.45
2022-09-02T06:31:22.537Z,69.17
2022-09-02T06:33:52.123Z,68.49
2022-09-02T06:36:19.306Z,68.03
2022-09-02T06:38:49.101Z,67.65
2022-09-02T06:41:18.931Z,66.34
2022-09-02T06:43:46.062Z,64.82
2022-09-02T06:46:18.424Z,64.67
2022-09-02T06:48:45.293Z,63.46
2022-09-02T06:51:32.255Z,62.85
2022-09-02T06:53:59.641Z,56.86
2022-09-02T06:56:27.992Z,46.07
2022-09-02T06:58:55.007Z,38.43
2022-09-02T07:01:24.628Z,33.74
2022-09-02T07:04:10.647Z,30.61
2022-09-02T07:06:40.125Z,28.75
2022-09-02T07:09:08.438Z,28.18
2022-09-02T07:11:35.462Z,27.83
2022-09-02T07:14:02.333Z,25.52
2022-09-02T07:16:31.477Z,23.21
2022-09-02T07:19:01.587Z,21.67
2022-09-02T07:21:29.465Z,22.18
2022-09-02T07:24:01.674Z,22.15
2022-09-02T07:26:29.221Z,21.41
2022-09-02T07:28:57.743Z,20.65
2022-09-02T07:31:24.893Z,20.55
2022-09-02T07:33:51.491Z,19.81
2022-09-02T07:36:21.715Z,19.72
2022-09-02T07:38:48.751Z,19.13
2022-09-02T07:41:15.494Z,17.43
2022-09-02T07:43:42.352Z,17.80
2022-09-02T07:46:09.244Z,16.78
2022-09-02T07:48:35.949Z,15.47
2022-09-02T07:51:03.099Z,15.26
2022-09-02T07:53:29.878Z,15.54
2022-09-02T07:55:57.411Z,15.09
2022-09-02T07:58:24.508Z,16.15
2022-09-02T08:00:51.554Z,15.73
2022-09-02T08:03:18.681Z,14.66
2022-09-02T08:05:47.296Z,15.05
2022-09-02T08:08:20.347Z,15.88
2022-09-02T08:10:49.194Z,17.16
2022-09-02T08:13:16.553Z,19.36
2022-09-02T08:15:43.858Z,20.48
2022-09-02T08:18:11.369Z,22.35
2022-09-02T08:20:49.082Z,24.40
2022-09-02T08:23:33.229Z,25.65
2022-09-02T08:26:02.838Z,26.32
2022-09-02T08:28:32.144Z,26.49
2022-09-02T08:30:59.350Z,28.26
2022-09-02T08:33:26.489Z,29.39
2022-09-02T08:35:53.276Z,29.21
2022-09-02T08:38:21.896Z,28.00
2022-09-02T08:40:50.216Z,28.53
2022-09-02T08:43:29.366Z,29.37
2022-09-02T08:45:58.964Z,28.86
2022-09-02T08:48:45.326Z,29.40
2022-09-02T08:51:32.135Z,29.68
2022-09-02T08:54:19.510Z,29.44
2022-09-02T08:56:46.241Z,31.12
2022-09-02T08:59:15.164Z,30.31
2022-09-02T09:01:46.468Z,29.46
2022-09-02T09:04:18.787Z,29.72
2022-09-02T09:07:07.598Z,31.68
2022-09-02T09:09:49.614Z,31.48
2022-09-02T09:12:34.490Z,30.23
2022-09-02T09:15:09.498Z,31.86
2022-09-02T09:17:53.467Z,32.25
2022-09-02T09:20:23.332Z,31.59
2022-09-02T09:22:51.367Z,32.03
2022-09-02T09:25:18.679Z,33.68
2022-09-02T09:27:46.265Z,33.75
2022-09-02T09:30:15.493Z,33.99
2022-09-02T09:32:54.862Z,32.71
2022-09-02T09:35:21.858Z,32.54
2022-09-02T09:37:50.302Z,33.55
2022-09-02T09:40:23.140Z,33.87
2022-09-02T09:43:24.510Z,32.65
2022-09-02T09:45:51.599Z,33.27
2022-09-02T09:48:29.905Z,33.04
2022-09-02T09:50:57.216Z,33.85
2022-09-02T09:53:28.273Z,34.69
2022-09-02T09:55:57.802Z,34.86
2022-09-02T09:58:28.596Z,33.31
2022-09-02T10:00:58.385Z,32.19
2022-09-02T10:03:27.298Z,33.26
2022-09-02T10:06:18.084Z,31.75
2022-09-02T10:08:58.502Z,30.94
2022-09-02T10:11:30.887Z,30.64
2022-09-02T10:14:10.138Z,31.08
2022-09-02T10:17:06.973Z,31.89
2022-09-02T10:20:13.167Z,32.52
2022-09-02T10:22:59.976Z,34.05
2022-09-02T10:25:39.199Z,33.63
2022-09-02T10:28:26.552Z,32.96
2022-09-02T10:31:23.682Z,34.07
2022-09-02T10:34:12.151Z,34.59
2022-09-02T10:37:01.811Z,32.92
2022-09-02T10:39:59.002Z,33.83
2022-09-02T10:43:01.332Z,33.09
2022-09-02T10:45:45.420Z,32.46
2022-09-02T10:48:36.594Z,32.31
2022-09-02T10:51:08.228Z,31.83
2022-09-02T10:53:43.746Z,31.76
2022-09-02T10:56:28.349Z,32.10
2022-09-02T10:59:05.736Z,30.63
2022-09-02T11:01:41.810Z,31.10
2022-09-02T11:04:14.164Z,30.50
2022-09-02T11:07:01.510Z,31.30
2022-09-02T11:09:41.720Z,30.06
2022-09-02T11:12:12.425Z,30.20
2022-09-02T11:15:06.888Z,29.59
2022-09-02T11:17:33.374Z,29.44
2022-09-02T11:20:08.033Z,29.89
2022-09-02T11:22:42.265Z,30.67
2022-09-02T11:25:18.246Z,29.44
2022-09-02T11:28:00.283Z,30.48
2022-09-02T11:30:52.572Z,30.86
2022-09-02T11:33:22.184Z,30.05
2022-09-02T11:35:50.879Z,30.02
2022-09-02T11:38:54.960Z,30.17
2022-09-02T11:41:44.492Z,30.47
2022-09-02T11:44:25.928Z,30.48
2022-09-02T11:47:21.154Z,29.50
2022-09-02T11:50:06.341Z,29.10
2022-09-02T11:52:46.589Z,28.84
2022-09-02T11:55:21.060Z,29.30
2022-09-02T11:57:55.191Z,29.41
2022-09-02T12:00:36.841Z,29.50
2022-09-02T12:03:16.772Z,29.89
2022-09-02T12:05:52.007Z,29.73
2022-09-02T12:08:28.021Z,28.94
2022-09-02T12:11:00.298Z,29.46
2022-09-02T12:13:37.402Z,29.90
2022-09-02T12:16:16.837Z,30.25
2022-09-02T12:19:00.262Z,29.90
2022-09-02T12:21:28.625Z,29.67
2022-09-02T12:23:58.710Z,29.96
2022-09-02T12:26:45.472Z,30.18
2022-09-02T12:29:24.693Z,30.32
2022-09-02T12:31:55.086Z,30.31
2022-09-02T12:34:21.669Z,30.02
2022-09-02T12:36:52.771Z,29.80
2022-09-02T12:39:25.422Z,30.86
2022-09-02T12:42:04.177Z,29.88
2022-09-02T12:45:01.347Z,29.49
2022-09-02T12:47:59.276Z,28.11
2022-09-02T12:50:54.885Z,28.03
2022-09-02T12:53:24.410Z,27.77
2022-09-02T12:55:59.863Z,27.86
2022-09-02T12:58:29.539Z,26.71
2022-09-02T13:01:31.001Z,27.40
2022-09-02T13:05:09.705Z,26.69
2022-09-02T13:08:08.411Z,26.39
2022-09-02T13:10:43.772Z,26.71
2022-09-02T13:13:17.177Z,27.12
2022-09-02T13:16:37.819Z,26.58
2022-09-02T13:19:42.513Z,27.08
2022-09-02T13:22:41.262Z,26.76
2022-09-02T13:25:13.279Z,26.23
2022-09-02T13:28:04.722Z,26.82
2022-09-02T13:30:50.230Z,25.69
2022-09-02T13:33:16.969Z,25.42
2022-09-02T13:35:43.822Z,25.49
2022-09-02T13:38:16.343Z,25.39
2022-09-02T13:40:46.281Z,26.63
2022-09-02T13:43:13.015Z,26.37
2022-09-02T13:45:39.887Z,26.19
2022-09-02T13:48:14.080Z,26.96
2022-09-02T13:50:48.297Z,28.21
2022-09-02T13:54:18.255Z,29.00
2022-09-02T13:56:15.582Z,29.64
2022-09-02T13:58:53.040Z,29.91
2022-09-02T14:01:33.087Z,29.92
2022-09-02T14:06:39.917Z,29.35
2022-09-02T14:09:07.993Z,29.18
2022-09-02T14:11:43.300Z,27.72
2022-09-02T14:14:14.792Z,27.58
2022-09-02T14:16:41.335Z,28.09
2022-09-02T14:19:16.897Z,27.35
2022-09-02T14:21:51.867Z,27.98
2022-09-02T14:24:24.883Z,27.63
2022-09-02T14:27:00.609Z,28.29
2022-09-02T14:29:31.371Z,28.52
2022-09-02T14:32:24.792Z,29.41
2022-09-02T14:35:10.391Z,29.13
2022-09-02T14:37:55.903Z,29.47
2022-09-02T14:40:34.600Z,29.46
2022-09-02T14:43:01.432Z,29.52
2022-09-02T14:45:28.835Z,29.82
2022-09-02T14:47:57.410Z,30.85
2022-09-02T14:50:28.650Z,31.88
2022-09-02T14:53:00.064Z,32.02
2022-09-02T14:55:46.423Z,32.21
2022-09-02T14:58:13.243Z,32.52
2022-09-02T15:00:39.764Z,33.06
2022-09-02T15:03:07.110Z,33.06
2022-09-02T15:05:33.855Z,33.67
2022-09-02T15:08:00.399Z,33.33
2022-09-02T15:10:28.436Z,33.59
2022-09-02T15:12:58.809Z,32.93
2022-09-02T15:15:27.388Z,31.89
2022-09-02T15:17:54.323Z,30.79
2022-09-02T15:20:23.823Z,29.83
2022-09-02T15:22:53.414Z,29.72
2022-09-02T15:25:20.625Z,29.11
2022-09-02T15:27:47.923Z,28.94
2022-09-02T15:30:14.717Z,29.56
2022-09-02T15:32:41.431Z,29.19
2022-09-02T15:35:09.420Z,29.07
2022-09-02T15:37:39.325Z,29.49
2022-09-02T15:40:07.846Z,28.79
2022-09-02T15:42:38.610Z,29.53
2022-09-02T15:45:08.692Z,30.17
2022-09-02T15:47:35.951Z,30.50
2022-09-02T15:50:02.780Z,30.54
2022-09-02T15:52:29.505Z,30.89
2022-09-02T15:54:56.951Z,31.06
2022-09-02T15:57:23.764Z,31.04
2022-09-02T15:59:51.460Z,30.86
2022-09-02T16:02:18.065Z,30.79
2022-09-02T16:04:44.943Z,31.43
2022-09-02T16:07:15.332Z,31.52
2022-09-02T16:09:43.459Z,31.55
2022-09-02T16:12:11.155Z,31.88
2022-09-02T16:14:37.605Z,32.32
2022-09-02T16:17:04.526Z,32.46
2022-09-02T16:19:31.103Z,33.36
2022-09-02T16:22:00.238Z,33.54
2022-09-02T16:24:26.760Z,33.63
2022-09-02T16:26:53.721Z,34.57
2022-09-02T16:29:21.082Z,34.56
2022-09-02T16:34:35.527Z,34.50
2022-09-02T16:37:02.276Z,34.99
2022-09-02T16:39:30.612Z,35.41
2022-09-02T16:41:58.635Z,35.80
2022-09-02T16:44:25.958Z,36.15
2022-09-02T16:46:53.239Z,36.48
2022-09-02T16:49:21.932Z,37.02
2022-09-02T16:51:50.728Z,37.28
2022-09-02T16:54:31.324Z,37.48
2022-09-02T16:56:59.701Z,38.57
2022-09-02T16:59:26.263Z,39.03
2022-09-02T17:01:53.146Z,39.21
2022-09-02T17:04:19.713Z,39.40
2022-09-02T17:06:46.254Z,40.06
2022-09-02T17:09:13.148Z,40.30
2022-09-02T17:11:41.214Z,40.65
2022-09-02T17:14:12.640Z,41.30
2022-09-02T17:16:45.414Z,41.56
2022-09-02T17:19:17.103Z,42.21
2022-09-02T17:21:47.402Z,42.58
2022-09-02T17:24:15.061Z,43.15
2022-09-02T17:26:43.793Z,43.36
2022-09-02T17:29:47.116Z,43.91
2022-09-02T17:32:06.697Z,44.79
2022-09-02T17:34:33.916Z,44.96
2022-09-02T17:37:00.491Z,44.78
2022-09-02T17:39:27.188Z,44.73
2022-09-02T17:41:59.603Z,44.46
2022-09-02T17:44:38.433Z,44.48
2022-09-02T17:47:10.548Z,45.89
2022-09-02T17:49:38.235Z,46.34
2022-09-02T17:52:08.072Z,47.37
2022-09-02T17:54:35.948Z,47.51
2022-09-02T17:57:21.840Z,46.18
2022-09-02T18:00:06.059Z,47.40
2022-09-02T18:02:35.490Z,46.29
2022-09-02T18:05:32.774Z,48.81
2022-09-02T18:08:25.810Z,47.16
2022-09-02T18:10:58.021Z,46.81
2022-09-02T18:13:40.124Z,48.65
2022-09-02T18:16:23.076Z,49.28
2022-09-02T18:19:02.336Z,49.30
2022-09-02T18:22:06.319Z,50.32
2022-09-02T18:25:10.462Z,52.07
2022-09-02T18:28:20.834Z,52.76
2022-09-02T18:31:12.091Z,55.80
2022-09-02T18:33:58.843Z,57.80
2022-09-02T18:36:25.348Z,56.09
2022-09-02T18:39:25.779Z,54.89
2022-09-02T18:42:14.147Z,54.21
2022-09-02T18:44:53.775Z,55.57
2022-09-02T18:47:23.717Z,57.90
2022-09-02T18:49:52.830Z,57.85
2022-09-02T18:52:24.920Z,58.08
2022-09-02T18:55:16.034Z,58.64
2022-09-02T18:57:56.021Z,59.43
2022-09-02T19:00:26.590Z,60.70
2022-09-02T19:03:01.505Z,60.81
2022-09-02T19:05:30.924Z,61.43
2022-09-02T19:08:33.343Z,61.15
2022-09-02T19:11:12.806Z,61.82
2022-09-02T19:13:44.606Z,60.59
2022-09-02T19:16:11.401Z,60.96
2022-09-02T19:18:37.953Z,62.03
2022-09-02T19:21:04.947Z,62.99
2022-09-02T19:23:31.742Z,63.09
2022-09-02T19:25:59.273Z,64.18
2022-09-02T19:28:26.769Z,64.64
2022-09-02T19:30:58.906Z,64.77
2022-09-02T19:33:26.894Z,64.43
2022-09-02T19:35:54.245Z,63.20
2022-09-02T19:38:20.827Z,62.21
2022-09-02T19:40:49.465Z,61.56
2022-09-02T19:43:16.794Z,62.24
2022-09-02T19:45:44.050Z,62.07
2022-09-02T19:48:11.415Z,62.36
2022-09-02T19:50:42.755Z,62.60
2022-09-02T19:53:28.112Z,62.79
2022-09-02T19:55:54.997Z,62.27
2022-09-02T19:58:21.533Z,62.98
2022-09-02T20:00:48.402Z,62.49
2022-09-02T20:03:15.563Z,62.46
2022-09-02T20:05:42.063Z,62.63
2022-09-02T20:08:11.683Z,62.78
2022-09-02T20:10:39.615Z,61.81
2022-09-02T20:13:06.903Z,62.10
2022-09-02T20:15:37.424Z,62.07
2022-09-02T20:18:15.418Z,61.86
2022-09-02T20:20:43.885Z,62.25
2022-09-02T20:23:15.065Z,62.31
2022-09-02T20:25:58.373Z,62.00
2022-09-02T20:28:28.745Z,62.00
2022-09-02T20:31:08.916Z,61.37
2022-09-02T20:33:49.254Z,61.07
2022-09-02T20:36:34.314Z,61.34
2022-09-02T20:39:11.660Z,61.56
2022-09-02T20:42:01.852Z,61.41
2022-09-02T20:44:38.100Z,62.05
2022-09-02T20:47:10.913Z,61.83
2022-09-02T20:49:56.868Z,61.98
2022-09-02T20:52:25.208Z,63.29
2022-09-02T20:55:18.108Z,63.38
2022-09-02T20:58:16.609Z,62.99
2022-09-02T21:00:47.458Z,63.85
2022-09-02T21:03:15.470Z,63.83
2022-09-02T21:05:47.340Z,63.66
2022-09-02T21:08:25.321Z,63.85
2022-09-02T21:10:55.225Z,63.89
2022-09-02T21:13:32.208Z,64.16
2022-09-02T21:16:05.871Z,64.66
2022-09-02T21:18:42.077Z,64.91
2022-09-02T21:21:18.308Z,65.92
2022-09-02T21:23:48.399Z,65.91
2022-09-02T21:26:49.308Z,65.90
2022-09-02T21:29:36.335Z,67.02
2022-09-02T21:32:05.330Z,66.59
2022-09-02T21:34:45.984Z,65.42
2022-09-02T21:37:13.719Z,66.09
2022-09-02T21:39:45.059Z,66.94
2022-09-02T21:42:30.444Z,66.53
2022-09-02T21:45:09.947Z,66.98
2022-09-02T21:47:59.388Z,67.35
2022-09-02T21:50:39.213Z,67.32
2022-09-02T21:53:37.607Z,67.97
2022-09-02T21:56:29.754Z,67.90
2022-09-02T21:59:53.569Z,68.42
2022-09-02T22:02:28.829Z,68.33
2022-09-02T22:05:13.618Z,68.59
2022-09-02T22:07:49.152Z,68.37
2022-09-02T22:10:28.687Z,68.82
2022-09-02T22:13:03.675Z,68.78
2022-09-02T22:16:01.517Z,69.19
2022-09-02T22:18:35.139Z,69.89
2022-09-02T22:21:17.251Z,70.22
2022-09-02T22:23:44.231Z,70.10
2022-09-02T22:26:35.404Z,70.99
2022-09-02T22:29:05.115Z,71.95
2022-09-02T22:31:35.922Z,71.51
2022-09-02T22:34:04.443Z,71.91
2022-09-02T22:37:00.158Z,71.89
2022-09-02T22:39:33.918Z,71.63
2022-09-02T22:42:10.113Z,72.13
2022-09-02T22:45:01.080Z,72.30
2022-09-02T22:47:48.043Z,73.00
2022-09-02T22:50:38.647Z,73.29
2022-09-02T22:53:05.185Z,73.66
2022-09-02T22:55:51.909Z,73.39
2022-09-02T22:58:47.582Z,74.26
2022-09-02T23:01:54.026Z,73.22
2022-09-02T23:04:54.834Z,73.21
2022-09-02T23:07:23.945Z,73.79
2022-09-02T23:09:54.841Z,73.62
2022-09-02T23:12:34.413Z,73.76
2022-09-02T23:15:10.244Z,73.48
2022-09-02T23:17:58.603Z,74.16
2022-09-02T23:20:32.294Z,74.30
2022-09-02T23:23:22.834Z,74.78
2022-09-02T23:26:09.785Z,74.59
2022-09-02T23:28:52.540Z,74.30
2022-09-02T23:31:32.296Z,74.42
2022-09-02T23:34:03.242Z,74.55
2022-09-02T23:36:50.739Z,74.44
2022-09-02T23:39:55.172Z,74.29
2022-09-02T23:42:22.041Z,75.45
2022-09-02T23:44:50.249Z,75.06
2022-09-02T23:47:40.721Z,75.35
2022-09-02T23:50:11.353Z,74.88
2022-09-02T23:52:56.928Z,75.04
2022-09-02T23:55:51.148Z,74.85
2022-09-02T23:58:44.758Z,75.37
